createdAt,value
2023-05-14T00:02:05.417Z,16.50
2023-05-14T00:04:33.766Z,15.00
2023-05-14T00:07:02.076Z,15.83
2023-05-14T00:09:31.584Z,16.87
2023-05-14T00:11:59.833Z,15.23
2023-05-14T00:14:28.117Z,15.47
2023-05-14T00:16:56.343Z,15.60
2023-05-14T00:19:24.531Z,15.87
2023-05-14T00:21:52.960Z,16.17
2023-05-14T00:24:21.210Z,15.30
2023-05-14T00:26:50.781Z,16.23
2023-05-14T00:29:18.943Z,15.13
2023-05-14T00:31:47.121Z,15.57
2023-05-14T00:34:15.312Z,16.27
2023-05-14T00:36:43.864Z,16.43
2023-05-14T00:39:12.486Z,16.23
2023-05-14T00:41:40.679Z,16.43
2023-05-14T00:44:10.172Z,16.40
2023-05-14T00:46:38.398Z,16.67
2023-05-14T00:49:06.636Z,16.33
2023-05-14T00:51:34.949Z,16.47
2023-05-14T00:54:03.215Z,15.43
2023-05-14T00:56:31.329Z,16.27
2023-05-14T00:58:59.670Z,16.20
2023-05-14T01:01:29.622Z,15.70
2023-05-14T01:03:58.179Z,15.73
2023-05-14T01:06:29.572Z,15.87
2023-05-14T01:09:01.101Z,14.90
2023-05-14T01:11:31.496Z,14.67
2023-05-14T01:14:06.904Z,14.90
2023-05-14T01:16:38.339Z,14.37
2023-05-14T01:19:07.190Z,14.47
2023-05-14T01:21:38.498Z,14.40
2023-05-14T01:24:06.921Z,13.40
2023-05-14T01:26:35.380Z,14.03
2023-05-14T01:29:07.908Z,14.10
2023-05-14T01:31:36.727Z,13.83
2023-05-14T01:34:05.598Z,14.07
2023-05-14T01:36:33.958Z,13.67
2023-05-14T01:39:04.252Z,13.43
2023-05-14T01:41:32.863Z,13.57
2023-05-14T01:44:01.056Z,13.43
2023-05-14T01:46:33.016Z,13.90
2023-05-14T01:49:01.470Z,13.43
2023-05-14T01:51:29.639Z,13.40
2023-05-14T01:53:57.759Z,13.27
2023-05-14T01:56:27.215Z,13.13
2023-05-14T01:58:55.595Z,13.10
2023-05-14T02:01:25.960Z,12.77
2023-05-14T02:03:54.235Z,13.27
2023-05-14T02:06:22.473Z,13.20
2023-05-14T02:08:50.639Z,12.97
2023-05-14T02:11:18.765Z,13.13
2023-05-14T02:13:48.320Z,12.63
2023-05-14T02:16:16.583Z,14.77
2023-05-14T02:18:44.831Z,13.47
2023-05-14T02:21:13.004Z,14.17
2023-05-14T02:23:42.150Z,14.00
2023-05-14T02:26:10.869Z,14.53
2023-05-14T02:28:39.108Z,13.00
2023-05-14T02:31:08.704Z,14.27
2023-05-14T02:33:37.021Z,13.30
2023-05-14T02:36:05.462Z,13.63
2023-05-14T02:38:33.695Z,13.40
2023-05-14T02:41:01.914Z,13.03
2023-05-14T02:43:30.038Z,12.87
2023-05-14T02:45:58.189Z,13.03
2023-05-14T02:48:27.717Z,12.17
2023-05-14T02:50:55.931Z,12.10
2023-05-14T02:53:24.061Z,11.87
2023-05-14T02:55:52.189Z,12.10
2023-05-14T02:58:20.398Z,12.47
2023-05-14T03:00:54.408Z,12.40
2023-05-14T03:03:22.923Z,11.50
2023-05-14T03:05:52.770Z,11.80
2023-05-14T03:08:20.914Z,11.83
2023-05-14T03:10:49.216Z,11.87
2023-05-14T03:13:19.909Z,11.87
2023-05-14T03:15:48.595Z,11.70
2023-05-14T03:18:16.839Z,11.93
2023-05-14T03:20:44.982Z,11.47
2023-05-14T03:23:14.891Z,11.63
2023-05-14T03:25:43.133Z,12.70
2023-05-14T03:28:11.347Z,11.73
2023-05-14T03:30:39.532Z,11.47
2023-05-14T03:33:07.803Z,12.13
2023-05-14T03:35:35.899Z,11.77
2023-05-14T03:38:04.114Z,12.53
2023-05-14T03:40:33.617Z,12.43
2023-05-14T03:43:01.740Z,12.33
2023-05-14T03:45:30.563Z,12.33
2023-05-14T03:47:58.816Z,12.80
2023-05-14T03:50:27.047Z,12.10
2023-05-14T03:52:55.256Z,12.33
2023-05-14T03:55:23.590Z,12.40
2023-05-14T03:57:53.209Z,12.50
2023-05-14T04:00:21.860Z,11.93
2023-05-14T04:02:50.189Z,13.10
2023-05-14T04:05:18.815Z,12.63
2023-05-14T04:07:47.026Z,12.33
2023-05-14T04:10:15.258Z,11.50
2023-05-14T04:12:43.414Z,11.87
2023-05-14T04:15:13.579Z,12.67
2023-05-14T04:17:41.758Z,13.20
2023-05-14T04:20:10.359Z,13.17
2023-05-14T04:22:38.493Z,13.13
2023-05-14T04:25:07.139Z,13.87
2023-05-14T04:27:35.627Z,13.97
2023-05-14T04:30:03.919Z,14.43
2023-05-14T04:32:33.567Z,15.23
2023-05-14T04:35:02.103Z,15.13
2023-05-14T04:37:30.872Z,16.03
2023-05-14T04:39:59.043Z,15.97
2023-05-14T04:42:27.250Z,16.57
2023-05-14T04:44:55.418Z,15.87
2023-05-14T04:47:23.604Z,16.13
2023-05-14T04:49:53.172Z,16.87
2023-05-14T04:52:21.339Z,16.93
2023-05-14T04:54:49.597Z,16.13
2023-05-14T04:57:17.801Z,17.03
2023-05-14T04:59:45.941Z,16.70
2023-05-14T05:02:14.130Z,17.37
2023-05-14T05:04:42.328Z,17.67
2023-05-14T05:07:12.818Z,17.37
2023-05-14T05:09:40.977Z,17.83
2023-05-14T05:12:09.370Z,17.53
2023-05-14T05:14:37.492Z,17.97
2023-05-14T05:17:05.724Z,18.00
2023-05-14T05:19:43.044Z,18.53
2023-05-14T05:22:13.461Z,20.67
2023-05-14T05:24:41.706Z,20.70
2023-05-14T05:27:09.873Z,21.73
2023-05-14T05:29:38.353Z,23.50
2023-05-14T05:32:07.025Z,21.90
2023-05-14T05:34:35.847Z,22.60
2023-05-14T05:37:05.191Z,23.87
2023-05-14T05:39:35.015Z,21.97
2023-05-14T05:42:03.604Z,24.03
2023-05-14T05:44:31.786Z,22.23
2023-05-14T05:46:59.989Z,22.63
2023-05-14T05:49:28.204Z,22.80
2023-05-14T05:51:56.411Z,23.17
2023-05-14T05:54:25.512Z,23.70
2023-05-14T05:56:55.070Z,24.23
2023-05-14T05:59:23.253Z,22.57
2023-05-14T06:01:51.654Z,23.13
2023-05-14T06:04:20.186Z,24.17
2023-05-14T06:06:48.336Z,23.77
2023-05-14T06:09:17.137Z,22.00
2023-05-14T06:11:45.348Z,20.77
2023-05-14T06:14:14.861Z,20.97
2023-05-14T06:16:43.090Z,19.17
2023-05-14T06:19:11.484Z,19.53
2023-05-14T06:21:39.801Z,16.37
2023-05-14T06:24:08.390Z,15.87
2023-05-14T06:26:36.665Z,15.60
2023-05-14T06:29:04.880Z,15.17
2023-05-14T06:31:34.453Z,14.63
2023-05-14T06:34:02.729Z,15.33
2023-05-14T06:36:30.958Z,15.93
2023-05-14T06:38:59.217Z,15.67
2023-05-14T06:41:27.442Z,16.97
2023-05-14T06:43:55.591Z,14.33
2023-05-14T06:46:23.765Z,14.60
2023-05-14T06:48:53.324Z,13.77
2023-05-14T06:51:21.524Z,15.10
2023-05-14T06:53:49.702Z,14.40
2023-05-14T06:56:17.853Z,14.43
2023-05-14T06:58:46.012Z,15.27
2023-05-14T07:01:14.184Z,14.73
2023-05-14T07:03:42.381Z,14.47
2023-05-14T07:06:13.553Z,13.23
2023-05-14T07:08:42.270Z,12.47
2023-05-14T07:11:10.454Z,12.47
2023-05-14T07:13:38.643Z,12.07
2023-05-14T07:16:07.243Z,12.33
2023-05-14T07:18:35.535Z,12.70
2023-05-14T07:21:04.891Z,13.40
2023-05-14T07:23:36.170Z,12.47
2023-05-14T07:26:04.607Z,11.80
2023-05-14T07:28:32.923Z,12.20
2023-05-14T07:31:01.199Z,11.47
2023-05-14T07:33:29.392Z,11.30
2023-05-14T07:35:57.560Z,11.47
2023-05-14T07:38:25.830Z,10.93
2023-05-14T07:40:55.453Z,11.27
2023-05-14T07:43:23.633Z,11.50
2023-05-14T07:45:51.923Z,10.33
2023-05-14T07:48:20.202Z,10.70
2023-05-14T07:50:48.351Z,10.63
2023-05-14T07:53:16.543Z,11.20
2023-05-14T07:55:44.786Z,11.03
2023-05-14T07:58:14.318Z,10.80
2023-05-14T08:00:42.457Z,9.47
2023-05-14T08:03:10.711Z,11.43
2023-05-14T08:05:39.100Z,9.70
2023-05-14T08:08:07.291Z,9.53
2023-05-14T08:10:35.467Z,10.03
2023-05-14T08:13:03.664Z,8.90
2023-05-14T08:15:33.164Z,9.57
2023-05-14T08:18:03.674Z,9.77
2023-05-14T08:20:32.008Z,9.40
2023-05-14T08:23:00.184Z,10.30
2023-05-14T08:25:28.364Z,8.97
2023-05-14T08:27:56.551Z,8.93
2023-05-14T08:30:25.042Z,8.80
2023-05-14T08:32:55.064Z,10.20
2023-05-14T08:35:23.284Z,9.60
2023-05-14T08:37:52.142Z,8.40
2023-05-14T08:40:20.658Z,9.10
2023-05-14T08:42:49.376Z,8.43
2023-05-14T08:45:19.829Z,7.63
2023-05-14T08:47:50.256Z,7.87
2023-05-14T08:50:22.969Z,7.73
2023-05-14T08:52:51.846Z,7.30
2023-05-14T08:55:20.516Z,7.53
2023-05-14T08:57:48.666Z,7.47
2023-05-14T09:00:17.105Z,8.30
2023-05-14T09:02:46.545Z,8.63
2023-05-14T09:05:14.784Z,9.10
2023-05-14T09:07:44.583Z,8.40
2023-05-14T09:10:12.995Z,8.30
2023-05-14T09:12:41.138Z,6.70
2023-05-14T09:15:09.614Z,7.00
2023-05-14T09:17:37.812Z,26.07
2023-05-14T09:20:06.900Z,8.20
2023-05-14T09:22:36.234Z,8.13
2023-05-14T09:25:06.689Z,7.93
2023-05-14T09:27:35.092Z,7.43
2023-05-14T09:30:07.099Z,7.50
2023-05-14T09:32:39.299Z,7.77
2023-05-14T09:35:14.671Z,6.60
2023-05-14T09:37:43.842Z,7.50
2023-05-14T09:40:13.645Z,6.47
2023-05-14T09:42:41.830Z,6.87
2023-05-14T09:45:10.869Z,7.83
2023-05-14T09:47:39.531Z,6.83
2023-05-14T09:50:08.480Z,6.87
2023-05-14T09:52:37.284Z,6.30
2023-05-14T09:55:05.685Z,6.60
2023-05-14T09:57:35.380Z,6.57
2023-05-14T10:00:03.768Z,6.90
2023-05-14T10:02:37.975Z,7.03
2023-05-14T10:05:07.210Z,7.20
2023-05-14T10:07:37.399Z,7.00
2023-05-14T10:10:08.188Z,6.70
2023-05-14T10:12:40.390Z,6.83
2023-05-14T10:15:11.055Z,7.30
2023-05-14T10:17:40.320Z,6.97
2023-05-14T10:20:10.042Z,6.87
2023-05-14T10:22:38.301Z,7.23
2023-05-14T10:25:07.091Z,6.90
2023-05-14T10:27:35.535Z,6.90
2023-05-14T10:30:07.994Z,6.80
2023-05-14T10:32:37.850Z,6.57
2023-05-14T10:35:16.699Z,6.43
2023-05-14T10:37:46.670Z,6.30
2023-05-14T10:40:15.288Z,6.40
2023-05-14T10:42:44.580Z,6.97
2023-05-14T10:45:14.860Z,6.73
2023-05-14T10:47:44.390Z,6.73
2023-05-14T10:50:13.306Z,7.10
2023-05-14T10:52:42.861Z,7.03
2023-05-14T10:55:11.557Z,6.83
2023-05-14T10:57:40.310Z,7.07
2023-05-14T11:00:10.746Z,6.70
2023-05-14T11:02:41.235Z,6.53
2023-05-14T11:05:11.073Z,6.50
2023-05-14T11:07:40.114Z,6.03
2023-05-14T11:10:09.258Z,6.47
2023-05-14T11:12:38.224Z,6.27
2023-05-14T11:15:07.531Z,6.00
2023-05-14T11:17:36.609Z,6.40
2023-05-14T11:20:06.614Z,6.45
2023-05-14T11:22:34.848Z,5.70
2023-05-14T11:25:03.242Z,6.27
2023-05-14T11:27:31.577Z,5.70
2023-05-14T11:30:00.921Z,5.93
2023-05-14T11:32:29.196Z,6.20
2023-05-14T11:34:57.391Z,6.10
2023-05-14T11:37:26.947Z,5.68
2023-05-14T11:39:55.694Z,5.90
2023-05-14T11:42:25.670Z,5.80
2023-05-14T11:44:54.814Z,5.50
2023-05-14T11:47:23.532Z,6.05
2023-05-14T11:49:51.739Z,5.72
2023-05-14T11:52:21.833Z,5.10
2023-05-14T11:54:51.332Z,5.32
2023-05-14T11:57:20.922Z,5.75
2023-05-14T11:59:49.382Z,5.30
2023-05-14T12:02:19.218Z,5.28
2023-05-14T12:04:52.964Z,5.28
2023-05-14T12:07:21.291Z,5.55
2023-05-14T12:09:51.182Z,4.75
2023-05-14T12:12:20.056Z,5.45
2023-05-14T12:14:48.509Z,5.07
2023-05-14T12:17:17.492Z,5.60
2023-05-14T12:19:46.313Z,5.53
2023-05-14T12:22:16.057Z,5.72
2023-05-14T12:24:45.221Z,7.35
2023-05-14T12:27:14.734Z,6.80
2023-05-14T12:29:44.814Z,6.75
2023-05-14T12:32:12.971Z,6.05
2023-05-14T12:34:41.136Z,6.38
2023-05-14T12:37:09.325Z,6.00
2023-05-14T12:39:37.548Z,6.65
2023-05-14T12:42:05.719Z,6.45
2023-05-14T12:44:35.226Z,6.75
2023-05-14T12:47:03.693Z,6.10
2023-05-14T12:49:32.101Z,6.55
2023-05-14T12:52:19.416Z,7.05
2023-05-14T12:54:48.409Z,6.45
2023-05-14T12:57:16.579Z,7.18
2023-05-14T12:59:46.079Z,7.03
2023-05-14T13:02:17.221Z,6.80
2023-05-14T13:04:45.637Z,7.25
2023-05-14T13:07:13.875Z,7.07
2023-05-14T13:09:42.036Z,7.68
2023-05-14T13:12:11.580Z,7.43
2023-05-14T13:14:39.791Z,7.15
2023-05-14T13:17:09.395Z,7.20
2023-05-14T13:19:37.788Z,7.20
2023-05-14T13:22:06.427Z,6.80
2023-05-14T13:24:34.575Z,6.68
2023-05-14T13:27:02.931Z,6.63
2023-05-14T13:29:31.596Z,6.22
2023-05-14T13:31:59.804Z,6.20
2023-05-14T13:34:29.363Z,6.57
2023-05-14T13:36:57.941Z,6.45
2023-05-14T13:39:27.191Z,7.07
2023-05-14T13:41:56.796Z,7.03
2023-05-14T13:44:25.149Z,6.28
2023-05-14T13:46:53.527Z,7.05
2023-05-14T13:49:21.870Z,6.93
2023-05-14T13:51:51.360Z,7.22
2023-05-14T13:54:19.626Z,6.85
2023-05-14T13:56:47.858Z,6.28
2023-05-14T13:59:16.077Z,6.90
2023-05-14T14:01:44.213Z,6.30
2023-05-14T14:04:12.342Z,6.32
2023-05-14T14:06:41.014Z,6.90
2023-05-14T14:09:10.840Z,6.40
2023-05-14T14:11:39.030Z,7.22
2023-05-14T14:14:07.238Z,7.50
2023-05-14T14:16:36.195Z,6.47
2023-05-14T14:19:04.605Z,5.82
2023-05-14T14:21:32.884Z,6.10
2023-05-14T14:24:01.336Z,5.67
2023-05-14T14:26:30.862Z,5.65
2023-05-14T14:28:59.016Z,5.50
2023-05-14T14:31:27.352Z,5.38
2023-05-14T14:33:55.506Z,5.50
2023-05-14T14:36:23.791Z,5.45
2023-05-14T14:38:51.912Z,5.70
2023-05-14T14:41:20.146Z,5.55
2023-05-14T14:43:49.765Z,5.32
2023-05-14T14:46:18.056Z,5.63
2023-05-14T14:48:46.434Z,6.23
2023-05-14T14:51:14.659Z,6.43
2023-05-14T14:53:42.864Z,6.03
2023-05-14T14:56:11.118Z,6.33
2023-05-14T14:58:39.289Z,6.80
2023-05-14T15:01:08.896Z,6.33
2023-05-14T15:03:37.100Z,6.23
2023-05-14T15:06:05.421Z,7.27
2023-05-14T15:08:35.309Z,6.60
2023-05-14T15:11:03.478Z,7.00
2023-05-14T15:13:31.635Z,6.27
2023-05-14T15:15:59.827Z,6.53
2023-05-14T15:18:29.388Z,6.73
2023-05-14T15:20:57.641Z,6.73
2023-05-14T15:23:25.887Z,6.70
2023-05-14T15:25:53.996Z,6.77
2023-05-14T15:28:22.184Z,6.87
2023-05-14T15:30:50.382Z,7.07
2023-05-14T15:33:19.345Z,6.93
2023-05-14T15:35:49.116Z,6.83
2023-05-14T15:38:17.695Z,6.93
2023-05-14T15:40:45.934Z,7.27
2023-05-14T15:43:14.123Z,6.20
2023-05-14T15:45:42.325Z,6.33
2023-05-14T15:48:10.611Z,6.03
2023-05-14T15:50:39.443Z,6.03
2023-05-14T15:53:09.065Z,5.83
2023-05-14T15:55:37.325Z,6.03
2023-05-14T15:58:06.075Z,5.97
2023-05-14T16:00:34.315Z,6.53
2023-05-14T16:03:02.625Z,5.77
2023-05-14T16:05:30.981Z,6.50
2023-05-14T16:07:59.135Z,6.10
2023-05-14T16:10:28.637Z,7.17
2023-05-14T16:12:56.752Z,6.83
2023-05-14T16:15:24.863Z,6.20
2023-05-14T16:17:53.075Z,6.07
2023-05-14T16:20:21.494Z,5.83
2023-05-14T16:22:49.685Z,5.40
2023-05-14T16:25:18.710Z,6.10
2023-05-14T16:27:48.341Z,5.60
2023-05-14T16:30:16.589Z,5.33
2023-05-14T16:32:48.434Z,4.60
2023-05-14T16:35:16.592Z,5.07
2023-05-14T16:37:44.815Z,4.87
2023-05-14T16:40:13.659Z,5.10
2023-05-14T16:42:41.885Z,4.80
2023-05-14T16:45:12.227Z,5.07
2023-05-14T16:47:40.411Z,4.80
2023-05-14T16:50:09.136Z,4.50
2023-05-14T16:52:37.307Z,5.00
2023-05-14T16:55:05.847Z,4.57
2023-05-14T16:57:34.266Z,4.23
2023-05-14T17:00:06.029Z,5.07
2023-05-14T17:02:35.624Z,4.80
2023-05-14T17:05:04.604Z,5.47
2023-05-14T17:07:32.900Z,5.13
2023-05-14T17:10:01.315Z,5.43
2023-05-14T17:12:29.543Z,4.77
2023-05-14T17:14:57.716Z,4.97
2023-05-14T17:17:25.903Z,4.67
2023-05-14T17:19:55.490Z,4.20
2023-05-14T17:22:23.699Z,4.70
2023-05-14T17:24:51.893Z,5.10
2023-05-14T17:27:20.067Z,4.67
2023-05-14T17:29:51.021Z,4.33
2023-05-14T17:32:19.287Z,4.40
2023-05-14T17:34:47.520Z,4.50
2023-05-14T17:37:17.050Z,4.77
2023-05-14T17:39:45.181Z,4.70
2023-05-14T17:42:13.304Z,5.03
2023-05-14T17:44:41.518Z,5.17
2023-05-14T17:47:09.859Z,4.90
2023-05-14T17:49:38.093Z,5.30
2023-05-14T17:52:06.407Z,4.70
2023-05-14T17:54:35.868Z,5.10
2023-05-14T17:57:04.121Z,5.57
2023-05-14T17:59:32.316Z,5.17
2023-05-14T18:02:00.943Z,5.00
2023-05-14T18:04:29.087Z,5.90
2023-05-14T18:06:57.203Z,5.20
2023-05-14T18:09:25.389Z,5.30
2023-05-14T18:11:56.814Z,4.87
2023-05-14T18:14:25.323Z,5.43
2023-05-14T18:16:53.548Z,5.30
2023-05-14T18:19:21.964Z,5.30
2023-05-14T18:21:50.738Z,5.63
2023-05-14T18:24:18.841Z,5.13
2023-05-14T18:26:46.991Z,5.23
2023-05-14T18:29:16.827Z,5.33
2023-05-14T18:31:45.045Z,5.50
2023-05-14T18:34:13.284Z,5.53
2023-05-14T18:36:41.427Z,5.07
2023-05-14T18:39:09.604Z,5.03
2023-05-14T18:41:37.713Z,5.43
2023-05-14T18:44:05.814Z,5.03
2023-05-14T18:46:35.375Z,5.70
2023-05-14T18:49:03.551Z,5.97
2023-05-14T18:51:31.735Z,5.87
2023-05-14T18:54:00.166Z,6.20
2023-05-14T18:56:28.306Z,7.27
2023-05-14T18:58:56.500Z,8.07
2023-05-14T19:01:25.578Z,6.97
2023-05-14T19:03:56.103Z,7.23
2023-05-14T19:06:24.554Z,6.87
2023-05-14T19:08:52.745Z,6.93
2023-05-14T19:11:21.966Z,6.90
2023-05-14T19:13:50.181Z,6.20
2023-05-14T19:16:18.449Z,7.10
2023-05-14T19:18:46.707Z,7.80
2023-05-14T19:21:16.522Z,7.07
2023-05-14T19:23:44.952Z,7.53
2023-05-14T19:26:13.186Z,6.40
2023-05-14T19:28:41.560Z,6.03
2023-05-14T19:31:09.732Z,6.33
2023-05-14T19:33:37.930Z,6.13
2023-05-14T19:36:06.620Z,6.77
2023-05-14T19:38:36.193Z,6.67
2023-05-14T19:41:04.307Z,6.97
2023-05-14T19:43:32.508Z,6.37
2023-05-14T19:46:01.474Z,6.83
2023-05-14T19:48:31.129Z,6.50
2023-05-14T19:50:59.320Z,7.67
2023-05-14T19:53:29.802Z,6.97
2023-05-14T19:55:59.408Z,7.70
2023-05-14T19:58:27.825Z,7.73
2023-05-14T20:00:57.302Z,7.77
2023-05-14T20:03:26.448Z,7.87
2023-05-14T20:05:54.817Z,7.20
2023-05-14T20:08:23.039Z,7.53
2023-05-14T20:10:51.206Z,8.10
2023-05-14T20:13:21.873Z,8.13
2023-05-14T20:15:51.619Z,8.57
2023-05-14T20:18:19.909Z,8.43
2023-05-14T20:20:48.925Z,8.93
2023-05-14T20:23:17.135Z,8.83
2023-05-14T20:25:45.293Z,8.93
2023-05-14T20:28:13.439Z,8.60
2023-05-14T20:30:42.992Z,8.80
2023-05-14T20:33:12.869Z,8.30
2023-05-14T20:35:43.726Z,8.07
2023-05-14T20:38:12.677Z,8.40
2023-05-14T20:40:40.980Z,7.40
2023-05-14T20:43:09.179Z,9.23
2023-05-14T20:45:37.398Z,8.03
2023-05-14T20:48:10.009Z,7.20
2023-05-14T20:50:38.356Z,7.53
2023-05-14T20:53:06.587Z,7.90
2023-05-14T20:55:34.762Z,8.37
2023-05-14T20:58:02.916Z,8.50
2023-05-14T21:00:31.121Z,7.90
2023-05-14T21:03:00.107Z,8.80
2023-05-14T21:05:29.886Z,9.40
2023-05-14T21:07:58.090Z,9.70
2023-05-14T21:10:26.636Z,8.93
2023-05-14T21:12:54.974Z,9.53
2023-05-14T21:15:23.649Z,9.93
2023-05-14T21:17:52.354Z,9.60
2023-05-14T21:20:20.671Z,9.50
2023-05-14T21:22:50.270Z,10.67
2023-05-14T21:25:18.512Z,11.17
2023-05-14T21:27:46.662Z,11.07
2023-05-14T21:30:15.352Z,10.23
2023-05-14T21:32:43.516Z,10.90
2023-05-14T21:35:11.675Z,11.10
2023-05-14T21:37:40.522Z,10.73
2023-05-14T21:40:12.256Z,10.47
2023-05-14T21:42:40.808Z,11.57
2023-05-14T21:45:09.352Z,11.90
2023-05-14T21:47:37.867Z,12.20
2023-05-14T21:50:06.874Z,12.23
2023-05-14T21:52:35.299Z,13.27
2023-05-14T21:55:03.507Z,11.50
2023-05-14T21:57:34.615Z,12.77
2023-05-14T22:00:04.308Z,12.23
2023-05-14T22:02:32.756Z,12.70
2023-05-14T22:05:01.244Z,13.00
2023-05-14T22:07:29.574Z,14.27
2023-05-14T22:09:57.760Z,12.97
2023-05-14T22:12:26.160Z,13.60
2023-05-14T22:14:55.699Z,13.37
2023-05-14T22:17:23.918Z,14.00
2023-05-14T22:19:52.086Z,14.50
2023-05-14T22:22:20.228Z,14.03
2023-05-14T22:24:48.452Z,14.43
2023-05-14T22:27:16.689Z,14.63
2023-05-14T22:29:44.887Z,14.90
2023-05-14T22:32:14.340Z,15.17
2023-05-14T22:34:42.504Z,15.83
2023-05-14T22:37:10.683Z,16.90
2023-05-14T22:39:38.855Z,16.80
2023-05-14T22:42:07.317Z,16.80
2023-05-14T22:44:36.563Z,18.33
2023-05-14T22:47:05.119Z,18.43
2023-05-14T22:49:34.798Z,17.27
2023-05-14T22:52:03.215Z,18.57
2023-05-14T22:54:31.460Z,18.20
2023-05-14T22:56:59.680Z,16.33
2023-05-14T22:59:27.854Z,18.23
2023-05-14T23:01:56.010Z,17.20
2023-05-14T23:04:24.216Z,16.77
2023-05-14T23:06:53.812Z,16.60
2023-05-14T23:09:21.999Z,16.73
2023-05-14T23:11:50.242Z,17.17
2023-05-14T23:14:18.638Z,17.77
2023-05-14T23:16:46.789Z,18.00
2023-05-14T23:19:15.178Z,17.20
2023-05-14T23:21:43.411Z,17.67
2023-05-14T23:24:12.894Z,18.80
2023-05-14T23:26:41.138Z,17.70
2023-05-14T23:29:09.291Z,16.63
2023-05-14T23:31:38.596Z,17.93
2023-05-14T23:34:06.841Z,17.00
2023-05-14T23:36:34.990Z,17.97
2023-05-14T23:39:03.245Z,17.87
2023-05-14T23:41:32.832Z,17.50
2023-05-14T23:44:01.041Z,16.37
2023-05-14T23:46:29.508Z,16.37
2023-05-14T23:48:57.864Z,15.77
2023-05-14T23:51:26.041Z,15.80
2023-05-14T23:53:58.238Z,15.70
2023-05-14T23:56:27.323Z,16.07
2023-05-14T23:58:56.976Z,17.93
